Time;durP1;ratioP1;P1;durP2;ratioP2;P2;SDS_P1;SDS_P2;PMS_P1;PMS_P2;Temp;Humidity;BMP_temperature;BMP_pressure;BME280_temperature;BME280_humidity;BME280_pressure;Samples;Min_cycle;Max_cycle;Signal;HPM_P1;HPM_P2
2023/07/01 00:01:19;;;;;;;15.43;8.30;;;;;;;16.77;100.00;96961.84;5034442;28;20395;-71
2023/07/01 00:03:45;;;;;;;13.83;7.87;;;;;;;16.68;100.00;96955.66;5034040;28;20411;-71
2023/07/01 00:06:12;;;;;;;15.75;8.55;;;;;;;16.66;100.00;96965.84;5034155;28;20403;-71
2023/07/01 00:08:38;;;;;;;14.68;7.93;;;;;;;16.67;100.00;96960.19;5034021;28;20411;-70
2023/07/01 00:11:07;;;;;;;20.33;8.38;;;;;;;16.61;100.00;96961.41;5034154;28;20756;-69
2023/07/01 00:13:33;;;;;;;14.65;7.93;;;;;;;16.58;100.00;96957.41;5033710;28;20407;-71
2023/07/01 00:16:00;;;;;;;13.93;7.80;;;;;;;16.53;100.00;96956.72;5033829;28;20403;-70
2023/07/01 00:18:27;;;;;;;17.30;8.00;;;;;;;16.48;100.00;96960.28;5033909;28;20446;-71
2023/07/01 00:20:54;;;;;;;17.45;8.35;;;;;;;16.49;100.00;96959.19;5033801;28;20407;-70
2023/07/01 00:23:20;;;;;;;17.55;8.82;;;;;;;16.46;100.00;96957.13;5033443;28;20403;-70
2023/07/01 00:25:47;;;;;;;17.13;8.57;;;;;;;16.41;100.00;96953.75;5033742;28;20407;-70
2023/07/01 00:28:15;;;;;;;15.60;9.20;;;;;;;16.37;100.00;96945.56;5033698;28;20434;-70
2023/07/01 00:30:41;;;;;;;13.48;8.02;;;;;;;16.33;100.00;96951.78;5033671;28;20411;-70
2023/07/01 00:33:07;;;;;;;15.85;8.35;;;;;;;16.35;100.00;96947.72;5033198;28;20415;-70
2023/07/01 00:35:34;;;;;;;14.55;8.85;;;;;;;16.33;100.00;96949.13;5033426;28;20896;-71
2023/07/01 00:38:00;;;;;;;14.03;8.60;;;;;;;16.30;100.00;96947.06;5033516;28;20848;-70
2023/07/01 00:40:26;;;;;;;15.10;9.02;;;;;;;16.30;100.00;96952.41;5033428;28;20399;-70
2023/07/01 00:42:52;;;;;;;15.50;9.00;;;;;;;16.26;100.00;96949.50;5033261;28;20395;-70
2023/07/01 00:45:20;;;;;;;14.55;8.35;;;;;;;16.18;100.00;96948.34;5033407;28;20426;-70
2023/07/01 00:47:46;;;;;;;15.52;8.75;;;;;;;16.22;100.00;96943.19;5033783;28;20410;-70
2023/07/01 00:50:14;;;;;;;17.23;8.88;;;;;;;16.19;100.00;96936.56;5033342;28;20469;-70
2023/07/01 00:52:41;;;;;;;18.57;9.33;;;;;;;16.16;100.00;96934.47;5031923;28;20423;-70
2023/07/01 00:55:08;;;;;;;16.13;9.45;;;;;;;16.16;100.00;96942.50;5033443;28;20867;-71
2023/07/01 00:57:35;;;;;;;17.38;9.48;;;;;;;16.11;100.00;96934.59;5033179;28;20776;-70
2023/07/01 01:00:04;;;;;;;16.40;8.90;;;;;;;16.00;100.00;96929.75;5033336;28;20408;-70
2023/07/01 01:02:39;;;;;;;16.45;9.30;;;;;;;15.97;100.00;96936.47;5032839;28;20476;-70
2023/07/01 01:05:12;;;;;;;15.52;8.63;;;;;;;16.01;100.00;96936.69;5033197;28;20410;-71
2023/07/01 01:07:47;;;;;;;18.50;9.13;;;;;;;16.01;100.00;96934.81;5033158;28;20431;-70
2023/07/01 01:10:18;;;;;;;16.50;8.52;;;;;;;15.99;100.00;96941.50;5032965;28;20403;-70
2023/07/01 01:12:45;;;;;;;18.15;8.93;;;;;;;16.00;100.00;96937.75;5032811;28;21000;-70
2023/07/01 01:15:11;;;;;;;18.33;9.73;;;;;;;15.94;100.00;96942.38;5032984;28;20451;-70
2023/07/01 01:17:42;;;;;;;15.32;8.35;;;;;;;15.92;100.00;96938.44;5032966;28;20817;-70
2023/07/01 01:20:13;;;;;;;18.48;9.13;;;;;;;15.86;100.00;96940.44;5033005;28;20487;-70
2023/07/01 01:22:44;;;;;;;19.25;9.95;;;;;;;15.87;100.00;96945.44;5032670;28;20425;-70
2023/07/01 01:25:18;;;;;;;15.23;9.10;;;;;;;15.81;100.00;96945.84;5032731;28;20744;-70
2023/07/01 01:27:46;;;;;;;19.48;9.60;;;;;;;15.78;100.00;96936.56;5032786;28;20411;-70
2023/07/01 01:30:14;;;;;;;20.77;8.98;;;;;;;15.77;100.00;96937.66;5031565;28;20847;-70
2023/07/01 01:32:40;;;;;;;21.23;10.05;;;;;;;15.69;100.00;96949.00;5032303;28;20809;-70
2023/07/01 01:35:07;;;;;;;16.75;9.63;;;;;;;15.64;100.00;96942.94;5032579;28;20418;-70
2023/07/01 01:37:41;;;;;;;22.98;10.52;;;;;;;15.62;100.00;96934.47;5032555;28;20415;-70
2023/07/01 01:40:15;;;;;;;19.60;10.15;;;;;;;15.60;100.00;96942.75;5032748;28;20791;-71
2023/07/01 01:42:45;;;;;;;21.77;11.40;;;;;;;15.57;100.00;96938.00;5032180;28;20415;-70
2023/07/01 01:45:15;;;;;;;18.83;10.10;;;;;;;15.57;100.00;96938.00;5032423;28;20399;-70
2023/07/01 01:47:41;;;;;;;21.55;11.75;;;;;;;15.50;100.00;96934.88;5032401;28;20405;-70
2023/07/01 01:50:10;;;;;;;21.10;11.63;;;;;;;15.51;100.00;96941.81;5032343;28;20469;-70
2023/07/01 01:52:38;;;;;;;26.48;12.15;;;;;;;15.46;100.00;96937.34;5031840;28;20788;-70
2023/07/01 01:55:07;;;;;;;21.63;11.37;;;;;;;15.42;100.00;96939.00;5032358;28;20395;-70
2023/07/01 01:57:33;;;;;;;23.95;11.63;;;;;;;15.47;100.00;96932.81;5032073;28;20503;-70
2023/07/01 02:00:08;;;;;;;31.90;12.93;;;;;;;15.42;100.00;96927.56;5032200;28;20411;-70
2023/07/01 02:02:34;;;;;;;21.35;11.75;;;;;;;15.36;100.00;96931.41;5031796;28;20417;-70
2023/07/01 02:05:00;;;;;;;22.35;11.85;;;;;;;15.33;100.00;96922.13;5032067;28;20502;-70
2023/07/01 02:07:26;;;;;;;26.00;13.00;;;;;;;15.34;100.00;96934.34;5030752;28;20411;-70
2023/07/01 02:09:53;;;;;;;26.27;13.07;;;;;;;15.36;100.00;96931.41;5030731;28;20916;-70
2023/07/01 02:12:19;;;;;;;23.58;12.75;;;;;;;15.27;100.00;96925.94;5031556;28;20423;-70
2023/07/01 02:14:45;;;;;;;24.48;12.57;;;;;;;15.24;100.00;96926.53;5031907;28;20418;-70
2023/07/01 02:17:12;;;;;;;26.02;13.18;;;;;;;15.21;100.00;96921.78;5031833;28;21132;-70
2023/07/01 02:19:39;;;;;;;27.80;13.40;;;;;;;15.22;100.00;96926.03;5031909;28;20455;-70
2023/07/01 02:22:05;;;;;;;27.30;12.43;;;;;;;15.25;100.00;96919.34;5031448;28;20391;-70
2023/07/01 02:24:31;;;;;;;27.43;13.70;;;;;;;15.27;100.00;96914.47;5031752;28;20409;-70
2023/07/01 02:26:59;;;;;;;28.23;13.88;;;;;;;15.25;100.00;96920.13;5031624;28;20493;-70
2023/07/01 02:29:25;;;;;;;26.50;13.80;;;;;;;15.23;100.00;96921.50;5031637;28;20481;-70
2023/07/01 02:31:51;;;;;;;28.20;13.38;;;;;;;15.16;100.00;96913.88;5031063;28;20411;-70
2023/07/01 02:34:25;;;;;;;27.83;13.47;;;;;;;15.16;100.00;96915.75;5031550;28;20438;-70
2023/07/01 02:36:51;;;;;;;31.55;14.43;;;;;;;15.10;100.00;96910.50;5031340;28;20406;-70
2023/07/01 02:39:17;;;;;;;24.08;12.75;;;;;;;15.09;100.00;96916.91;5031576;28;20403;-70
2023/07/01 02:41:44;;;;;;;26.80;13.38;;;;;;;15.06;100.00;96916.69;5031161;28;20414;-70
2023/07/01 02:44:11;;;;;;;24.60;12.43;;;;;;;15.03;100.00;96914.63;5031316;28;20409;-70
2023/07/01 02:46:37;;;;;;;26.50;13.65;;;;;;;15.00;100.00;96921.31;5031296;28;20465;-70
2023/07/01 02:49:04;;;;;;;27.50;13.60;;;;;;;14.98;100.00;96920.00;5030143;28;20418;-70
2023/07/01 02:51:32;;;;;;;28.25;13.38;;;;;;;14.93;100.00;96910.22;5030986;28;20757;-71
2023/07/01 02:53:58;;;;;;;34.67;14.35;;;;;;;14.95;100.00;96915.28;5031049;28;20399;-70
2023/07/01 02:56:24;;;;;;;30.60;14.23;;;;;;;14.93;100.00;96915.56;5031181;28;20439;-70
2023/07/01 02:58:51;;;;;;;32.90;14.67;;;;;;;14.94;100.00;96917.16;5031154;28;20472;-71
2023/07/01 03:01:17;;;;;;;29.25;14.10;;;;;;;14.91;100.00;96919.59;5030910;28;20414;-70
2023/07/01 03:03:44;;;;;;;30.70;13.50;;;;;;;14.91;100.00;96922.25;5030836;28;20399;-70
2023/07/01 03:06:11;;;;;;;33.90;15.13;;;;;;;14.91;100.00;96923.03;5030886;28;20413;-70
2023/07/01 03:08:38;;;;;;;27.83;13.60;;;;;;;14.86;100.00;96917.81;5031181;28;20427;-70
2023/07/01 03:11:05;;;;;;;26.83;13.53;;;;;;;14.80;100.00;96916.28;5030848;28;20900;-70
2023/07/01 03:13:31;;;;;;;27.92;14.00;;;;;;;14.81;100.00;96915.19;5030788;28;20423;-70
2023/07/01 03:15:57;;;;;;;27.60;13.85;;;;;;;14.78;100.00;96920.31;5030282;28;20403;-70
2023/07/01 03:18:23;;;;;;;34.22;15.02;;;;;;;14.81;100.00;96925.84;5030755;28;20407;-70
2023/07/01 03:20:49;;;;;;;30.27;14.75;;;;;;;14.79;100.00;96925.38;5030834;28;20469;-70
2023/07/01 03:23:16;;;;;;;33.50;15.57;;;;;;;14.76;100.00;96931.25;5030560;28;20998;-70
2023/07/01 03:25:43;;;;;;;34.47;15.60;;;;;;;14.81;100.00;96927.75;5030741;28;20406;-71
2023/07/01 03:28:09;;;;;;;29.52;14.02;;;;;;;14.75;100.00;96928.88;5030602;28;20892;-71
2023/07/01 03:30:36;;;;;;;27.75;13.15;;;;;;;14.70;100.00;96924.44;5030519;28;20403;-70
2023/07/01 03:33:02;;;;;;;29.42;14.23;;;;;;;14.67;100.00;96923.13;5030223;28;20969;-70
2023/07/01 03:35:28;;;;;;;30.73;14.02;;;;;;;14.69;100.00;96915.63;5030557;28;20407;-70
2023/07/01 03:37:54;;;;;;;28.63;14.20;;;;;;;14.68;100.00;96910.59;5030619;28;20419;-70
2023/07/01 03:40:21;;;;;;;26.40;13.55;;;;;;;14.69;100.00;96918.31;5030430;28;20414;-70
2023/07/01 03:42:48;;;;;;;32.63;15.23;;;;;;;14.66;100.00;96920.75;5030109;28;20421;-70
2023/07/01 03:45:14;;;;;;;30.92;15.95;;;;;;;14.66;100.00;96913.53;5030383;28;20414;-71
2023/07/01 03:47:43;;;;;;;36.17;14.93;;;;;;;14.68;100.00;96918.59;5030313;28;20892;-71
2023/07/01 03:50:10;;;;;;;30.00;14.48;;;;;;;14.62;100.00;96919.75;5030461;28;20406;-71
2023/07/01 03:52:37;;;;;;;31.98;15.25;;;;;;;14.63;100.00;96918.66;5030027;28;20422;-71
2023/07/01 03:55:04;;;;;;;34.13;15.68;;;;;;;14.66;100.00;96912.75;5030239;28;20494;-71
2023/07/01 03:57:30;;;;;;;33.67;15.60;;;;;;;14.68;100.00;96923.91;5030222;28;20494;-70
2023/07/01 03:59:57;;;;;;;32.72;15.50;;;;;;;14.70;100.00;96914.56;5030279;28;20439;-70
2023/07/01 04:02:24;;;;;;;35.43;16.23;;;;;;;14.68;100.00;96922.03;5029959;28;20792;-70
2023/07/01 04:04:50;;;;;;;32.97;16.55;;;;;;;14.68;100.00;96918.59;5030225;28;20494;-70
2023/07/01 04:07:21;;;;;;;31.55;15.23;;;;;;;14.73;100.00;96916.63;5030277;28;20412;-71
2023/07/01 04:09:49;;;;;;;31.13;15.18;;;;;;;14.73;100.00;96910.53;5030272;28;20403;-70
2023/07/01 04:12:16;;;;;;;32.58;16.33;;;;;;;14.71;100.00;96916.16;5029925;28;20419;-70
2023/07/01 04:14:42;;;;;;;35.17;16.48;;;;;;;14.68;100.00;96907.94;5030466;28;21052;-70
2023/07/01 04:17:09;;;;;;;30.38;14.68;;;;;;;14.70;100.00;96916.44;5030045;28;20873;-70
2023/07/01 04:19:35;;;;;;;30.55;15.63;;;;;;;14.73;100.00;96912.41;5030137;28;20411;-70
2023/07/01 04:22:02;;;;;;;37.67;15.90;;;;;;;14.76;100.00;96914.47;5045077;28;20449;-69
2023/07/01 04:24:29;;;;;;;32.08;16.02;;;;;;;14.78;100.00;96915.00;5049978;28;20471;-69
2023/07/01 04:26:55;;;;;;;37.63;16.95;;;;;;;14.82;100.00;96915.97;5052532;28;20406;-69
2023/07/01 04:29:22;;;;;;;33.97;15.68;;;;;;;14.81;100.00;96915.19;5052799;28;20479;-69
2023/07/01 04:31:48;;;;;;;30.38;14.85;;;;;;;14.85;100.00;96915.41;5051216;28;20417;-69
2023/07/01 04:34:15;;;;;;;31.00;15.45;;;;;;;14.91;100.00;96917.72;5050803;28;20420;-69
2023/07/01 04:36:42;;;;;;;36.90;16.67;;;;;;;14.93;100.00;96915.56;5052086;28;20424;-69
2023/07/01 04:39:09;;;;;;;36.03;16.27;;;;;;;14.95;100.00;96917.94;5051857;28;20475;-69
2023/07/01 04:41:35;;;;;;;35.10;16.00;;;;;;;14.97;100.00;96913.88;5051835;28;20467;-69
2023/07/01 04:44:02;;;;;;;35.07;15.47;;;;;;;15.00;100.00;96913.31;5051540;28;20405;-70
2023/07/01 04:46:31;;;;;;;33.27;15.70;;;;;;;14.99;100.00;96906.41;5043710;28;20446;-71
2023/07/01 04:48:59;;;;;;;32.72;15.00;;;;;;;15.04;100.00;96908.97;5031941;28;20417;-70
2023/07/01 04:51:26;;;;;;;25.63;14.38;;;;;;;15.10;100.00;96907.84;5031644;28;20407;-70
2023/07/01 04:53:53;;;;;;;35.80;16.23;;;;;;;15.13;100.00;96909.09;5031599;28;20399;-70
2023/07/01 04:56:23;;;;;;;32.15;15.55;;;;;;;15.10;100.00;96905.16;5031633;28;20434;-69
2023/07/01 04:58:51;;;;;;;26.88;13.75;;;;;;;15.22;100.00;96901.25;5031651;28;20418;-69
2023/07/01 05:01:17;;;;;;;32.40;15.35;;;;;;;15.23;100.00;96906.28;5031661;28;20784;-70
2023/07/01 05:03:44;;;;;;;25.10;13.77;;;;;;;15.28;100.00;96910.72;5031281;28;20395;-70
2023/07/01 05:06:10;;;;;;;25.48;13.30;;;;;;;15.35;100.00;96905.81;5031406;28;20415;-69
2023/07/01 05:08:37;;;;;;;29.80;14.95;;;;;;;15.37;100.00;96911.66;5031382;28;20457;-69
2023/07/01 05:11:04;;;;;;;25.65;12.88;;;;;;;15.43;100.00;96908.59;5031410;28;20446;-68
2023/07/01 05:13:30;;;;;;;29.88;15.60;;;;;;;15.52;100.00;96914.06;5031056;28;20424;-69
2023/07/01 05:15:56;;;;;;;30.70;14.40;;;;;;;15.55;100.00;96916.19;5031255;28;20399;-69
2023/07/01 05:18:22;;;;;;;34.45;14.55;;;;;;;15.63;100.00;96912.03;5031661;28;20490;-70
2023/07/01 05:20:49;;;;;;;24.02;13.07;;;;;;;15.69;100.00;96906.31;5021583;28;20734;-72
2023/07/01 05:23:15;;;;;;;26.02;12.85;;;;;;;15.72;100.00;96905.69;5025371;28;20849;-71
2023/07/01 05:25:42;;;;;;;22.13;11.73;;;;;;;15.77;100.00;96913.63;5029007;28;20415;-71
2023/07/01 05:28:08;;;;;;;21.70;10.70;;;;;;;15.79;100.00;96915.97;5029962;28;20907;-71
2023/07/01 05:30:35;;;;;;;18.40;10.93;;;;;;;15.80;100.00;96905.00;5032888;28;20407;-70
2023/07/01 05:33:01;;;;;;;19.75;11.38;;;;;;;15.75;100.00;96910.47;5032506;28;20411;-70
2023/07/01 05:35:27;;;;;;;18.95;11.05;;;;;;;15.79;100.00;96908.78;5032383;28;20395;-70
2023/07/01 05:37:54;;;;;;;17.00;10.18;;;;;;;15.87;100.00;96907.28;5024704;28;20415;-70
2023/07/01 05:40:20;;;;;;;17.60;9.98;;;;;;;15.91;100.00;96904.84;5031699;28;20403;-70
2023/07/01 05:42:48;;;;;;;18.83;10.27;;;;;;;15.97;100.00;96899.09;5016406;28;20866;-70
2023/07/01 05:45:14;;;;;;;13.38;8.90;;;;;;;16.03;100.00;96897.91;5029712;28;20408;-70
2023/07/01 05:47:40;;;;;;;19.73;9.75;;;;;;;16.10;100.00;96900.97;5014477;28;20397;-70
2023/07/01 05:50:07;;;;;;;14.02;8.45;;;;;;;16.12;100.00;96900.66;5029544;28;20465;-70
2023/07/01 05:52:33;;;;;;;15.07;8.25;;;;;;;16.11;100.00;96902.53;5027490;28;20503;-70
2023/07/01 05:54:59;;;;;;;11.33;6.33;;;;;;;16.15;100.00;96898.22;5029068;28;20514;-70
2023/07/01 05:57:26;;;;;;;10.38;6.57;;;;;;;16.12;100.00;96888.09;5031221;28;21341;-70
2023/07/01 05:59:53;;;;;;;11.85;6.70;;;;;;;16.08;100.00;96886.34;5029172;28;20771;-70
2023/07/01 06:02:19;;;;;;;10.82;5.65;;;;;;;16.14;100.00;96882.47;5028883;28;20405;-70
2023/07/01 06:04:45;;;;;;;9.52;5.47;;;;;;;16.08;100.00;96884.47;5028855;28;20970;-70
2023/07/01 06:07:12;;;;;;;8.70;5.47;;;;;;;16.12;100.00;96890.00;5020286;28;20500;-70
2023/07/01 06:09:38;;;;;;;8.98;5.47;;;;;;;16.13;100.00;96889.69;5027972;28;20415;-70
2023/07/01 06:12:05;;;;;;;9.90;5.22;;;;;;;16.18;100.00;96888.78;5027684;28;20415;-70
2023/07/01 06:14:31;;;;;;;7.93;5.07;;;;;;;16.17;100.00;96884.53;5027131;28;20423;-70
2023/07/01 06:16:59;;;;;;;6.55;5.00;;;;;;;16.17;100.00;96896.00;5024875;28;20407;-71
2023/07/01 06:19:25;;;;;;;7.27;4.90;;;;;;;16.23;100.00;96894.84;5028797;28;20482;-71
2023/07/01 06:21:51;;;;;;;6.10;4.40;;;;;;;16.27;100.00;96885.13;5027058;28;20981;-71
2023/07/01 06:24:17;;;;;;;5.28;4.35;;;;;;;16.25;100.00;96881.94;5022478;28;20884;-72
2023/07/01 06:26:44;;;;;;;6.13;4.30;;;;;;;16.34;100.00;96879.38;5025279;28;20403;-72
2023/07/01 06:29:10;;;;;;;7.55;4.00;;;;;;;16.43;100.00;96882.91;5030483;28;20407;-71
2023/07/01 06:31:37;;;;;;;4.30;3.80;;;;;;;16.44;100.00;96875.69;5029466;28;20391;-72
2023/07/01 06:34:12;;;;;;;11.25;3.92;;;;;;;16.40;100.00;96888.84;5031015;28;20415;-72
2023/07/01 06:36:38;;;;;;;5.63;3.75;;;;;;;16.52;100.00;96875.00;5031100;28;20403;-72
2023/07/01 06:39:05;;;;;;;5.70;3.63;;;;;;;16.57;100.00;96877.53;5031344;28;20403;-72
2023/07/01 06:41:31;;;;;;;7.80;3.80;;;;;;;16.68;100.00;96884.28;5031518;28;20403;-69
2023/07/01 06:43:57;;;;;;;6.18;3.20;;;;;;;16.84;100.00;96882.03;5031697;28;20740;-70
2023/07/01 06:46:23;;;;;;;10.48;3.35;;;;;;;16.63;100.00;96879.81;5031388;28;20800;-70
2023/07/01 06:48:50;;;;;;;5.90;3.20;;;;;;;16.74;100.00;96887.63;5026279;28;20463;-70
2023/07/01 06:51:17;;;;;;;9.50;3.03;;;;;;;16.87;100.00;96882.22;5011241;28;20409;-71
2023/07/01 06:53:43;;;;;;;7.97;3.40;;;;;;;16.79;100.00;96880.25;5011523;28;20417;-72
2023/07/01 06:56:10;;;;;;;5.53;2.97;;;;;;;16.77;100.00;96877.09;5011786;28;20447;-70
2023/07/01 06:58:36;;;;;;;3.88;2.78;;;;;;;16.83;100.00;96872.44;5013056;28;20535;-71
2023/07/01 07:01:03;;;;;;;6.78;3.13;;;;;;;17.06;100.00;96882.03;5041733;28;20888;-72
2023/07/01 07:03:29;;;;;;;6.32;2.88;;;;;;;16.90;100.00;96873.59;5030489;28;20414;-71
2023/07/01 07:05:56;;;;;;;5.30;2.80;;;;;;;17.08;100.00;96873.69;5030912;28;20415;-71
2023/07/01 07:08:23;;;;;;;8.23;3.17;;;;;;;16.92;100.00;96867.91;5031314;28;20441;-71
2023/07/01 07:10:49;;;;;;;8.52;3.20;;;;;;;16.89;100.00;96864.00;5026123;28;20653;-71
2023/07/01 07:13:16;;;;;;;5.50;2.70;;;;;;;16.93;100.00;96867.63;5020835;28;20419;-71
2023/07/01 07:15:43;;;;;;;4.28;3.00;;;;;;;17.09;100.00;96877.94;5030712;28;20403;-71
2023/07/01 07:18:10;;;;;;;8.37;2.93;;;;;;;17.28;100.00;96867.88;5028236;28;20453;-71
2023/07/01 07:20:38;;;;;;;5.32;2.90;;;;;;;17.46;100.00;96860.69;5021482;28;20403;-71
2023/07/01 07:23:05;;;;;;;4.32;2.70;;;;;;;17.48;100.00;96851.28;5030202;28;20395;-71
2023/07/01 07:25:33;;;;;;;3.42;2.50;;;;;;;17.74;100.00;96854.09;5029620;28;20984;-71
2023/07/01 07:28:00;;;;;;;3.30;2.50;;;;;;;17.76;100.00;96846.53;5030249;28;20395;-71
2023/07/01 07:30:26;;;;;;;8.35;2.90;;;;;;;17.94;100.00;96850.06;5028760;28;20745;-71
2023/07/01 07:32:53;;;;;;;3.42;2.30;;;;;;;18.01;100.00;96842.34;5029983;28;20419;-71
2023/07/01 07:35:19;;;;;;;10.82;2.53;;;;;;;18.08;100.00;96848.03;5030623;28;20792;-71
2023/07/01 07:37:45;;;;;;;9.30;2.60;;;;;;;18.09;100.00;96847.75;5030421;28;20444;-71
2023/07/01 07:40:13;;;;;;;4.60;2.53;;;;;;;18.15;100.00;96845.69;5029126;28;20415;-71
2023/07/01 07:42:43;;;;;;;3.93;2.20;;;;;;;18.28;100.00;96852.00;5030371;28;20391;-71
2023/07/01 07:45:10;;;;;;;4.72;2.30;;;;;;;18.24;100.00;96848.38;5030396;28;20440;-71
2023/07/01 07:47:36;;;;;;;5.57;2.45;;;;;;;18.63;100.00;96842.16;5030334;28;20418;-71
2023/07/01 07:50:03;;;;;;;7.60;3.00;;;;;;;18.65;100.00;96843.38;5030324;28;20405;-71
2023/07/01 07:52:29;;;;;;;3.42;2.20;;;;;;;18.53;100.00;96840.53;5029958;28;20477;-72
2023/07/01 07:54:55;;;;;;;6.25;2.80;;;;;;;18.52;100.00;96836.28;5030260;28;20968;-71
2023/07/01 07:57:21;;;;;;;3.60;2.25;;;;;;;18.48;100.00;96838.81;5030317;28;20477;-71
2023/07/01 07:59:49;;;;;;;4.33;2.00;;;;;;;18.68;100.00;96840.09;5028968;28;20414;-71
2023/07/01 08:02:15;;;;;;;6.95;2.38;;;;;;;18.88;100.00;96833.28;5033020;28;20406;-71
2023/07/01 08:04:41;;;;;;;5.22;2.17;;;;;;;18.90;100.00;96834.56;5034248;28;20494;-72
2023/07/01 08:07:08;;;;;;;4.72;2.28;;;;;;;18.83;100.00;96834.25;5034303;28;20505;-71
2023/07/01 08:09:34;;;;;;;4.22;2.20;;;;;;;18.79;100.00;96830.63;5033422;28;20872;-71
2023/07/01 08:12:01;;;;;;;5.27;2.40;;;;;;;18.70;100.00;96832.53;5033965;28;20403;-71
2023/07/01 08:14:27;;;;;;;7.15;2.55;;;;;;;18.83;100.00;96823.53;5034432;28;20488;-71
2023/07/01 08:16:55;;;;;;;4.90;2.38;;;;;;;18.99;100.00;96828.38;5034280;28;20864;-71
2023/07/01 08:19:21;;;;;;;4.80;2.60;;;;;;;18.82;100.00;96819.25;5034322;28;20431;-71
2023/07/01 08:21:47;;;;;;;4.93;2.57;;;;;;;18.77;100.00;96815.97;5034024;28;20406;-71
2023/07/01 08:24:15;;;;;;;2.85;2.25;;;;;;;18.77;100.00;96821.31;5034244;28;20398;-71
2023/07/01 08:26:41;;;;;;;3.87;2.40;;;;;;;18.86;100.00;96814.06;5034035;28;20470;-72
2023/07/01 08:29:10;;;;;;;6.72;2.50;;;;;;;19.01;100.00;96818.94;5034002;28;20403;-71
2023/07/01 08:31:36;;;;;;;6.30;2.60;;;;;;;19.01;100.00;96820.81;5033793;28;20486;-71
2023/07/01 08:34:04;;;;;;;7.38;2.80;;;;;;;18.99;100.00;96809.59;5033870;28;20425;-71
2023/07/01 08:36:30;;;;;;;5.35;2.60;;;;;;;19.03;100.00;96816.69;5033805;28;20495;-71
2023/07/01 08:38:57;;;;;;;4.38;2.60;;;;;;;18.98;100.00;96816.88;5033722;28;20433;-73
2023/07/01 08:41:24;;;;;;;2.88;2.33;;;;;;;18.96;100.00;96811.03;5033435;28;20414;-73
2023/07/01 08:43:53;;;;;;;4.22;2.50;;;;;;;19.02;100.00;96798.25;5033016;28;20402;-73
2023/07/01 08:46:19;;;;;;;3.60;2.22;;;;;;;19.23;100.00;96807.19;5030871;28;20439;-73
2023/07/01 08:48:46;;;;;;;7.82;2.85;;;;;;;19.25;100.00;96805.75;5033765;28;20469;-73
2023/07/01 08:51:21;;;;;;;4.68;2.15;;;;;;;19.31;100.00;96801.81;5033747;28;20395;-73
2023/07/01 08:53:48;;;;;;;7.07;2.20;;;;;;;19.16;100.00;96796.16;5033147;28;20911;-73
2023/07/01 08:56:18;;;;;;;4.60;2.20;;;;;;;19.37;100.00;96788.19;5033255;28;20765;-73
2023/07/01 08:58:46;;;;;;;5.85;2.58;;;;;;;19.42;100.00;96780.75;5033378;28;20485;-73
2023/07/01 09:01:13;;;;;;;6.30;2.50;;;;;;;19.45;100.00;96782.78;5033118;28;20409;-73
2023/07/01 09:03:40;;;;;;;10.52;2.30;;;;;;;19.55;100.00;96781.66;5033120;28;20529;-73
2023/07/01 09:06:07;;;;;;;4.28;2.17;;;;;;;19.52;100.00;96777.75;5033206;28;20406;-73
2023/07/01 09:08:39;;;;;;;4.90;2.10;;;;;;;19.73;100.00;96785.06;5033439;28;20407;-71
2023/07/01 09:11:06;;;;;;;4.30;2.33;;;;;;;19.99;100.00;96772.28;5033380;28;20409;-70
2023/07/01 09:13:32;;;;;;;2.83;2.13;;;;;;;20.20;100.00;96775.75;5031635;28;20423;-70
2023/07/01 09:15:58;;;;;;;6.22;2.10;;;;;;;20.31;99.94;96768.84;5033267;28;20403;-73
2023/07/01 09:18:26;;;;;;;3.53;2.20;;;;;;;20.16;100.00;96764.06;5032718;28;20502;-68
2023/07/01 09:20:53;;;;;;;4.43;2.25;;;;;;;19.84;100.00;96764.78;5032764;28;20442;-69
2023/07/01 09:23:29;;;;;;;5.88;2.38;;;;;;;19.92;100.00;96763.94;5032206;28;20399;-69
2023/07/01 09:26:13;;;;;;;4.53;2.40;;;;;;;19.85;100.00;96764.44;5032700;28;20417;-69
2023/07/01 09:28:41;;;;;;;5.65;2.33;;;;;;;20.01;100.00;96756.59;5032861;28;20395;-69
2023/07/01 09:31:09;;;;;;;3.40;2.20;;;;;;;20.11;100.00;96761.59;5032682;28;20403;-69
2023/07/01 09:33:36;;;;;;;3.10;2.10;;;;;;;20.33;100.00;96763.16;5032164;28;20441;-69
2023/07/01 09:36:03;;;;;;;3.95;2.00;;;;;;;20.45;100.00;96755.94;5031914;28;20533;-70
2023/07/01 09:38:29;;;;;;;4.00;2.08;;;;;;;20.39;100.00;96762.66;5032788;28;20461;-70
2023/07/01 09:41:11;;;;;;;6.35;2.13;;;;;;;20.72;88.31;96765.38;5031512;28;20544;-69
2023/07/01 09:43:39;;;;;;;4.85;2.20;;;;;;;20.78;85.94;96765.94;5032315;28;20482;-70
2023/07/01 09:46:05;;;;;;;3.65;2.20;;;;;;;20.71;92.84;96769.19;5032284;28;20482;-69
2023/07/01 09:48:33;;;;;;;6.43;2.22;;;;;;;20.77;88.29;96740.94;5032358;28;20410;-69
2023/07/01 09:51:02;;;;;;;3.50;2.15;;;;;;;20.69;95.72;96749.09;5032410;28;20458;-69
2023/07/01 09:53:32;;;;;;;5.15;2.30;;;;;;;20.78;87.68;96755.19;5021602;28;20763;-69
2023/07/01 09:56:00;;;;;;;3.80;2.50;;;;;;;20.64;97.55;96752.78;5031692;28;20410;-69
2023/07/01 09:58:26;;;;;;;4.25;2.30;;;;;;;20.76;100.00;96746.66;5022462;28;20401;-69
2023/07/01 10:00:54;;;;;;;5.97;2.83;;;;;;;20.99;82.56;96765.88;5025092;28;20406;-69
2023/07/01 10:03:22;;;;;;;4.43;2.50;;;;;;;20.98;88.45;96742.78;5014623;28;20428;-69
2023/07/01 10:05:51;;;;;;;4.63;2.78;;;;;;;21.09;89.42;96749.31;5025496;28;20449;-70
2023/07/01 10:08:17;;;;;;;3.67;2.40;;;;;;;21.37;82.47;96736.03;5029812;28;20407;-70
2023/07/01 10:10:44;;;;;;;4.05;2.40;;;;;;;21.36;87.84;96724.47;5018089;28;20463;-70
2023/07/01 10:13:12;;;;;;;4.63;2.40;;;;;;;21.40;98.90;96730.75;5025663;28;20779;-70
2023/07/01 10:15:39;;;;;;;5.38;2.40;;;;;;;21.35;97.06;96739.03;5026271;28;20407;-70
2023/07/01 10:18:22;;;;;;;3.38;2.22;;;;;;;21.32;90.34;96728.97;5028934;28;20406;-70
2023/07/01 10:20:50;;;;;;;4.70;2.58;;;;;;;21.36;95.28;96726.38;5024823;28;20876;-70
2023/07/01 10:23:17;;;;;;;6.68;2.60;;;;;;;21.67;76.03;96713.13;5030279;28;20473;-70
2023/07/01 10:25:43;;;;;;;6.05;2.95;;;;;;;21.54;85.99;96725.81;5031412;28;20406;-70
2023/07/01 10:28:10;;;;;;;6.00;2.50;;;;;;;21.10;79.38;96719.38;5031398;28;20897;-70
2023/07/01 10:31:18;;;;;;;6.22;2.55;;;;;;;21.07;76.19;96721.94;5031572;28;20410;-70
2023/07/01 10:33:53;;;;;;;4.70;2.50;;;;;;;21.26;79.09;96719.53;5025641;28;20427;-70
2023/07/01 10:36:19;;;;;;;6.40;2.65;;;;;;;21.24;81.23;96711.78;5031404;28;20406;-70
2023/07/01 10:38:45;;;;;;;6.72;2.38;;;;;;;21.35;87.33;96720.19;5031361;28;20430;-70
2023/07/01 10:41:12;;;;;;;4.10;2.40;;;;;;;21.47;88.48;96712.13;5027976;28;20406;-70
2023/07/01 10:43:39;;;;;;;5.25;2.22;;;;;;;21.71;79.65;96714.03;5029462;28;20395;-70
2023/07/01 10:46:12;;;;;;;3.92;2.30;;;;;;;21.58;88.22;96705.16;5028722;28;20403;-70
2023/07/01 10:48:39;;;;;;;4.80;2.47;;;;;;;21.66;88.56;96699.97;5025260;28;20760;-70
2023/07/01 10:51:08;;;;;;;3.53;2.20;;;;;;;21.86;91.43;96707.16;5030431;28;20877;-70
2023/07/01 10:54:00;;;;;;;5.55;2.50;;;;;;;22.02;79.91;96693.78;5029975;28;20908;-70
2023/07/01 10:56:27;;;;;;;6.30;2.47;;;;;;;22.30;73.71;96702.66;5029922;28;20396;-70
2023/07/01 10:59:20;;;;;;;5.32;2.53;;;;;;;22.01;77.14;96693.00;5031438;28;20570;-70
2023/07/01 11:01:48;;;;;;;4.93;2.45;;;;;;;22.22;76.02;96701.69;5030791;28;20456;-70
2023/07/01 11:04:15;;;;;;;4.43;2.70;;;;;;;22.28;76.28;96684.13;5031002;28;20873;-68
2023/07/01 11:06:49;;;;;;;5.97;2.60;;;;;;;22.07;79.52;96680.06;5030368;28;20891;-70
2023/07/01 11:09:26;;;;;;;4.80;2.30;;;;;;;22.26;81.95;96675.59;5028332;28;20415;-70
2023/07/01 11:11:53;;;;;;;4.38;2.20;;;;;;;22.23;90.88;96679.00;5026031;28;20403;-70
2023/07/01 11:14:20;;;;;;;4.10;2.60;;;;;;;22.31;88.74;96678.06;5030943;28;20494;-70
2023/07/01 11:16:46;;;;;;;5.20;2.70;;;;;;;22.53;77.17;96676.72;5030950;28;20406;-70
2023/07/01 11:19:16;;;;;;;19.77;9.73;;;;;;;22.45;87.61;96666.88;5031074;28;20403;-70
2023/07/01 11:21:43;;;;;;;9.10;5.32;;;;;;;22.53;80.70;96665.94;5030552;28;20426;-70